Time;durP1;ratioP1;P1;durP2;ratioP2;P2;SDS_P1;SDS_P2;PMS_P1;PMS_P2;Temp;Humidity;BMP_temperature;BMP_pressure;BME280_temperature;BME280_humidity;BME280_pressure;Samples;Min_cycle;Max_cycle;Signal;HPM_P1;HPM_P2
2023/07/18 00:00:14;;;;;;;6.50;5.70;;;;;;;19.73;75.64;100056.59;131237;1254;106793;-78
2023/07/18 00:03:40;;;;;;;7.10;5.80;;;;;;;19.69;75.91;100058.52;131281;1261;109897;-78
2023/07/18 00:06:45;;;;;;;6.70;5.70;;;;;;;19.65;75.44;100047.15;131230;1254;108685;-78
2023/07/18 00:09:51;;;;;;;6.90;5.20;;;;;;;19.58;75.41;100045.70;131212;1253;108692;-78
2023/07/18 00:12:56;;;;;;;6.60;5.30;;;;;;;19.56;75.42;100044.79;131252;1254;106615;-77
2023/07/18 00:16:02;;;;;;;4.80;4.30;;;;;;;19.49;75.35;100043.78;131264;1260;106608;-78
2023/07/18 00:19:09;;;;;;;5.00;4.50;;;;;;;19.43;75.18;100039.45;131339;1253;108578;-77
2023/07/18 00:22:15;;;;;;;5.20;4.60;;;;;;;19.38;75.15;100039.59;131298;1261;108524;-78
2023/07/18 00:25:21;;;;;;;6.40;4.90;;;;;;;19.32;74.81;100044.95;131261;1254;109244;-79
2023/07/18 00:28:28;;;;;;;5.60;5.00;;;;;;;19.27;74.99;100044.06;131226;1254;108398;-78
2023/07/18 00:31:33;;;;;;;6.70;5.40;;;;;;;19.20;75.02;100037.70;131223;1254;108562;-78
2023/07/18 00:34:40;;;;;;;6.70;5.80;;;;;;;19.18;75.36;100040.67;131178;1261;124727;-78
2023/07/18 00:37:47;;;;;;;6.90;5.30;;;;;;;19.13;75.90;100048.50;131225;1262;108747;-78
2023/07/18 00:40:52;;;;;;;6.10;4.70;;;;;;;19.14;75.77;100046.28;131281;1257;107689;-78
2023/07/18 00:43:58;;;;;;;5.80;5.20;;;;;;;19.16;75.69;100054.61;131120;1254;108372;-78
2023/07/18 00:47:04;;;;;;;10.00;6.80;;;;;;;19.09;76.64;100066.62;131122;1254;107698;-78
2023/07/18 00:50:12;;;;;;;9.00;6.80;;;;;;;18.99;77.72;100079.72;131256;1254;106817;-78
2023/07/18 00:53:22;;;;;;;8.30;7.40;;;;;;;18.95;79.49;100111.55;131291;1254;108718;-78
2023/07/18 00:56:28;;;;;;;12.20;7.80;;;;;;;18.86;83.18;100138.23;131242;1248;107430;-77
2023/07/18 00:59:34;;;;;;;11.70;6.90;;;;;;;18.79;83.78;100126.45;131283;1252;107700;-78
2023/07/18 01:02:41;;;;;;;11.40;7.70;;;;;;;18.80;84.33;100131.63;131292;1254;107655;-78
2023/07/18 01:05:47;;;;;;;14.60;7.90;;;;;;;18.79;85.74;100136.21;131216;1254;108569;-78
2023/07/18 01:08:53;;;;;;;9.50;7.40;;;;;;;18.78;86.33;100135.88;131224;1254;107733;-77
2023/07/18 01:11:58;;;;;;;12.20;8.40;;;;;;;18.75;86.24;100140.70;131267;1253;107711;-78
2023/07/18 01:15:04;;;;;;;10.50;8.60;;;;;;;18.72;86.28;100148.94;131162;1252;107085;-78
2023/07/18 01:18:10;;;;;;;12.50;9.10;;;;;;;18.69;87.41;100162.36;131396;1248;107112;-78
2023/07/18 01:21:20;;;;;;;13.00;8.30;;;;;;;18.58;87.61;100182.29;131277;1248;108645;-78
2023/07/18 01:24:26;;;;;;;10.80;7.10;;;;;;;18.47;85.77;100190.09;131246;1261;108640;-78
2023/07/18 01:27:32;;;;;;;9.90;7.30;;;;;;;18.38;84.52;100204.64;131320;1253;106976;-78
2023/07/18 01:30:39;;;;;;;10.80;6.70;;;;;;;18.24;83.96;100227.04;131249;1254;105595;-78
2023/07/18 01:33:46;;;;;;;8.70;6.60;;;;;;;18.14;83.02;100240.98;131078;1253;107431;-78
2023/07/18 01:36:52;;;;;;;8.10;5.80;;;;;;;18.01;82.53;100264.06;131228;1254;108451;-77
2023/07/18 01:39:58;;;;;;;9.20;5.60;;;;;;;17.84;81.76;100285.95;131237;1248;107163;-77
2023/07/18 01:43:04;;;;;;;7.20;5.40;;;;;;;17.72;81.68;100302.80;131301;1254;107915;-78
2023/07/18 01:46:09;;;;;;;6.20;4.70;;;;;;;17.60;82.10;100317.98;131228;1248;108637;-78
2023/07/18 01:49:15;;;;;;;6.70;4.50;;;;;;;17.47;81.94;100330.95;131274;1248;107656;-78
2023/07/18 01:52:20;;;;;;;7.20;4.50;;;;;;;17.39;81.90;100338.15;131226;1254;108550;-78
2023/07/18 01:55:26;;;;;;;6.40;4.60;;;;;;;17.32;82.12;100332.88;131175;1254;107761;-77
2023/07/18 01:58:32;;;;;;;8.00;4.30;;;;;;;17.28;81.77;100320.39;131214;1254;108579;-77
2023/07/18 02:01:37;;;;;;;4.90;3.90;;;;;;;17.24;81.98;100321.45;131215;1254;106836;-79
2023/07/18 02:04:43;;;;;;;8.50;4.00;;;;;;;17.20;82.15;100341.02;131320;1247;108655;-79
2023/07/18 02:07:49;;;;;;;5.90;4.20;;;;;;;17.15;82.41;100344.39;131304;1253;108625;-79
2023/07/18 02:10:55;;;;;;;6.90;4.20;;;;;;;17.10;82.56;100344.73;131199;1254;107648;-78
2023/07/18 02:14:03;;;;;;;5.60;3.50;;;;;;;17.10;82.08;100341.98;131192;1248;108600;-78
2023/07/18 02:17:09;;;;;;;5.70;3.70;;;;;;;17.15;81.83;100328.80;131327;1252;107700;-77
2023/07/18 02:20:15;;;;;;;6.90;4.30;;;;;;;17.21;81.48;100330.09;131190;1252;108677;-77
2023/07/18 02:23:21;;;;;;;8.10;4.40;;;;;;;17.26;81.71;100342.91;131293;1254;107460;-78
2023/07/18 02:26:26;;;;;;;5.40;3.80;;;;;;;17.30;81.16;100322.66;131256;1253;108665;-77
2023/07/18 02:29:32;;;;;;;5.90;4.00;;;;;;;17.42;80.83;100321.09;131241;1248;107892;-76
2023/07/18 02:32:38;;;;;;;4.60;3.40;;;;;;;17.48;80.54;100304.73;131343;1248;108509;-77
2023/07/18 02:35:50;;;;;;;6.80;3.80;;;;;;;17.62;80.57;100266.05;131433;1254;106968;-80
2023/07/18 02:38:55;;;;;;;6.60;4.00;;;;;;;17.79;80.45;100245.68;131394;1253;108682;-78
2023/07/18 02:42:02;;;;;;;6.00;4.00;;;;;;;17.89;80.31;100255.05;131227;1254;107692;-78
2023/07/18 02:45:10;;;;;;;5.80;3.60;;;;;;;17.94;79.95;100249.17;131251;1248;107081;-77
2023/07/18 02:48:16;;;;;;;5.80;3.90;;;;;;;17.98;79.82;100254.92;131548;1253;108351;-77
2023/07/18 02:51:21;;;;;;;5.30;3.80;;;;;;;18.02;80.00;100254.93;131179;1248;107851;-77
2023/07/18 02:54:27;;;;;;;4.70;3.20;;;;;;;18.04;79.82;100251.83;131152;1248;108579;-77
2023/07/18 02:57:32;;;;;;;3.60;3.30;;;;;;;18.06;79.67;100254.58;131113;1253;108644;-77
2023/07/18 03:00:38;;;;;;;4.70;3.40;;;;;;;18.10;79.48;100255.00;131278;1247;107530;-77
2023/07/18 03:03:44;;;;;;;7.40;4.00;;;;;;;18.12;79.46;100256.59;131306;1252;108477;-77
2023/07/18 03:06:51;;;;;;;5.80;3.80;;;;;;;18.05;79.15;100266.66;131129;1250;107330;-77
2023/07/18 03:09:56;;;;;;;5.70;4.00;;;;;;;17.95;79.17;100263.27;131280;1248;107434;-77
2023/07/18 03:13:03;;;;;;;5.60;4.10;;;;;;;17.96;79.22;100262.47;131273;1252;108526;-77
2023/07/18 03:16:09;;;;;;;4.60;3.30;;;;;;;17.99;79.23;100258.73;131282;1261;108716;-77
2023/07/18 03:19:15;;;;;;;4.40;3.40;;;;;;;18.03;79.24;100260.46;131249;1248;108724;-77
2023/07/18 03:22:20;;;;;;;5.50;3.40;;;;;;;18.07;79.22;100264.92;131215;1248;107656;-78
2023/07/18 03:25:26;;;;;;;6.20;4.50;;;;;;;18.12;79.15;100287.04;131241;1254;107666;-78
2023/07/18 03:28:34;;;;;;;5.80;4.20;;;;;;;17.95;79.10;100308.10;131209;1253;107698;-77
2023/07/18 03:31:42;;;;;;;7.10;3.90;;;;;;;17.81;79.18;100316.52;131316;1257;107861;-80
2023/07/18 03:34:48;;;;;;;5.60;4.30;;;;;;;17.87;79.30;100320.41;131253;1252;107772;-77
2023/07/18 03:37:53;;;;;;;5.40;4.00;;;;;;;17.95;79.25;100320.52;131255;1260;108395;-78
2023/07/18 03:41:01;;;;;;;6.60;3.80;;;;;;;18.07;79.03;100324.86;131267;1248;107819;-77
2023/07/18 03:44:07;;;;;;;5.30;3.90;;;;;;;18.18;78.96;100329.57;131318;1253;107724;-77
2023/07/18 03:47:13;;;;;;;4.90;3.90;;;;;;;18.33;78.88;100338.73;131269;1253;107482;-77
2023/07/18 03:50:18;;;;;;;5.40;4.10;;;;;;;18.49;78.63;100350.52;131385;1254;108641;-77
2023/07/18 03:53:24;;;;;;;6.50;4.40;;;;;;;18.55;78.38;100352.61;131254;1253;107685;-77
2023/07/18 03:56:30;;;;;;;5.20;4.20;;;;;;;18.60;78.39;100350.75;131312;1252;108612;-77
2023/07/18 03:59:36;;;;;;;6.40;4.60;;;;;;;18.69;78.42;100351.10;131340;1253;107699;-77
2023/07/18 04:02:43;;;;;;;6.70;4.20;;;;;;;18.78;78.09;100357.77;131253;1247;107107;-77
2023/07/18 04:05:49;;;;;;;7.70;4.30;;;;;;;18.88;77.81;100357.88;131250;1248;107959;-77
2023/07/18 04:08:55;;;;;;;6.60;4.60;;;;;;;19.00;77.77;100354.83;131246;1253;108482;-77
2023/07/18 04:12:00;;;;;;;7.60;4.50;;;;;;;19.15;77.47;100351.68;131277;1261;109114;-77
2023/07/18 04:15:08;;;;;;;6.20;4.60;;;;;;;19.33;77.55;100348.60;131354;1247;108641;-77
2023/07/18 04:18:14;;;;;;;6.70;4.50;;;;;;;19.63;77.87;100343.41;131354;1253;107353;-77
2023/07/18 04:21:20;;;;;;;7.50;4.80;;;;;;;19.99;77.43;100346.44;131236;1253;106750;-77
2023/07/18 04:24:25;;;;;;;6.00;4.40;;;;;;;20.22;76.13;100347.42;131319;1260;106889;-78
2023/07/18 04:27:31;;;;;;;4.80;4.00;;;;;;;20.28;75.73;100346.14;131315;1252;108651;-78
2023/07/18 04:30:37;;;;;;;6.20;4.00;;;;;;;20.39;74.83;100344.14;131339;1253;107678;-78
2023/07/18 04:33:43;;;;;;;5.10;4.20;;;;;;;20.44;74.16;100344.15;131298;1253;107478;-78
2023/07/18 04:36:48;;;;;;;5.40;4.40;;;;;;;20.45;73.79;100348.69;131260;1253;108610;-78
2023/07/18 04:39:54;;;;;;;5.50;4.10;;;;;;;20.37;72.26;100363.70;131260;1247;107739;-77
2023/07/18 04:42:59;;;;;;;5.50;4.10;;;;;;;20.28;73.53;100366.36;131365;1253;108663;-79
2023/07/18 04:46:07;;;;;;;4.80;3.80;;;;;;;20.28;73.14;100366.27;131275;1253;107709;-79
2023/07/18 04:49:13;;;;;;;4.30;3.70;;;;;;;20.25;72.25;100365.63;131434;1252;108688;-77
2023/07/18 04:52:19;;;;;;;6.40;3.10;;;;;;;20.18;72.25;100373.60;131186;1247;108657;-79
2023/07/18 04:55:25;;;;;;;4.10;3.20;;;;;;;20.17;72.50;100379.37;131325;1254;108578;-79
2023/07/18 04:58:31;;;;;;;4.90;3.30;;;;;;;20.15;71.97;100388.58;131403;1253;107553;-79
2023/07/18 05:01:37;;;;;;;4.90;3.20;;;;;;;20.24;73.19;100398.27;131387;1252;107263;-78
2023/07/18 05:04:45;;;;;;;5.10;3.40;;;;;;;20.36;72.13;100403.61;131456;1261;107230;-77
2023/07/18 05:07:51;;;;;;;3.50;2.80;;;;;;;20.35;72.17;100403.23;131191;1252;106115;-77
2023/07/18 05:11:02;;;;;;;4.20;3.00;;;;;;;20.51;72.63;100401.02;131265;1253;107546;-76
2023/07/18 05:14:08;;;;;;;4.30;3.10;;;;;;;20.61;69.78;100400.64;131268;1251;105646;-77
2023/07/18 05:17:16;;;;;;;4.70;3.20;;;;;;;20.46;70.84;100402.57;131224;1247;109084;-77
2023/07/18 05:20:22;;;;;;;5.10;3.10;;;;;;;20.42;69.79;100405.37;131215;1254;106239;-78
2023/07/18 05:23:27;;;;;;;5.00;3.10;;;;;;;20.30;70.05;100401.79;131286;1254;107589;-77
2023/07/18 05:26:33;;;;;;;3.60;2.70;;;;;;;20.28;70.59;100402.48;131243;1247;107527;-77
2023/07/18 05:29:38;;;;;;;3.30;2.90;;;;;;;20.31;70.32;100401.23;131234;1253;106647;-77
2023/07/18 05:32:44;;;;;;;5.00;2.90;;;;;;;20.36;70.39;100412.98;131243;1253;107557;-77
2023/07/18 05:35:50;;;;;;;5.00;3.10;;;;;;;20.43;69.93;100412.63;131229;1250;105801;-77
2023/07/18 05:38:56;;;;;;;5.50;2.90;;;;;;;20.40;69.76;100420.94;131212;1257;106458;-77
2023/07/18 05:42:02;;;;;;;3.80;3.20;;;;;;;20.44;70.17;100427.75;131230;1254;107503;-77
2023/07/18 05:45:10;;;;;;;5.10;2.60;;;;;;;20.52;70.20;100425.11;131240;1248;107219;-76
2023/07/18 05:48:15;;;;;;;3.70;3.00;;;;;;;20.57;69.74;100423.95;131277;1252;107390;-77
2023/07/18 05:51:21;;;;;;;5.20;2.90;;;;;;;20.60;70.34;100424.08;131228;1253;107511;-77
2023/07/18 05:54:29;;;;;;;4.30;2.70;;;;;;;20.70;69.88;100429.66;131290;1248;107212;-77
2023/07/18 05:57:34;;;;;;;5.10;2.70;;;;;;;20.69;69.01;100432.36;131236;1247;109240;-77
2023/07/18 06:00:42;;;;;;;3.40;2.30;;;;;;;20.61;69.05;100435.98;131277;1247;107542;-74
2023/07/18 06:03:51;;;;;;;4.40;3.00;;;;;;;20.44;69.02;100436.60;131369;1253;107414;-73
2023/07/18 06:06:57;;;;;;;2.90;2.30;;;;;;;20.29;69.75;100439.24;131247;1253;107057;-73
2023/07/18 06:10:03;;;;;;;3.20;2.30;;;;;;;20.42;70.18;100439.85;131214;1247;107448;-73
2023/07/18 06:13:08;;;;;;;4.20;2.80;;;;;;;20.74;69.84;100442.27;131267;1253;106506;-74
2023/07/18 06:16:14;;;;;;;3.40;2.50;;;;;;;20.88;69.41;100444.13;131327;1262;107470;-74
2023/07/18 06:19:21;;;;;;;3.60;2.80;;;;;;;21.02;68.95;100448.06;131229;1252;107401;-74
2023/07/18 06:22:26;;;;;;;3.80;2.90;;;;;;;20.99;68.32;100453.05;131281;1247;108233;-74
2023/07/18 06:25:32;;;;;;;13.90;3.10;;;;;;;20.93;68.25;100450.62;131311;1254;106152;-74
2023/07/18 06:28:37;;;;;;;3.70;2.80;;;;;;;20.98;67.85;100456.64;131126;1253;107526;-75
2023/07/18 06:31:43;;;;;;;4.20;3.00;;;;;;;20.92;66.63;100462.45;131302;1253;106421;-75
2023/07/18 06:34:48;;;;;;;6.20;2.60;;;;;;;20.74;66.87;100465.26;131299;1248;107584;-75
2023/07/18 06:37:54;;;;;;;4.20;2.80;;;;;;;20.51;66.98;100468.40;131241;1251;107599;-75
2023/07/18 06:40:59;;;;;;;3.40;2.80;;;;;;;20.51;67.41;100467.52;131275;1250;107419;-74
2023/07/18 06:44:07;;;;;;;3.40;2.70;;;;;;;20.63;66.80;100467.98;131279;1247;107213;-74
2023/07/18 06:47:13;;;;;;;4.80;2.90;;;;;;;20.73;66.43;100469.73;131271;1253;107534;-74
2023/07/18 06:50:19;;;;;;;4.50;2.90;;;;;;;20.47;66.37;100478.54;131236;1253;107497;-74
2023/07/18 06:53:24;;;;;;;3.30;2.70;;;;;;;20.44;66.87;100469.58;131231;1262;107669;-74
2023/07/18 06:56:30;;;;;;;4.50;2.80;;;;;;;20.58;67.02;100468.27;131252;1250;107955;-73
2023/07/18 06:59:35;;;;;;;4.90;3.00;;;;;;;20.65;66.38;100475.81;131207;1253;106023;-74
2023/07/18 07:02:41;;;;;;;3.50;2.50;;;;;;;20.75;67.10;100473.77;131231;1253;107505;-74
2023/07/18 07:05:47;;;;;;;3.00;2.60;;;;;;;21.01;66.67;100474.60;131264;1248;107229;-73
2023/07/18 07:08:52;;;;;;;4.30;2.90;;;;;;;21.24;66.52;100478.32;131257;1252;106962;-73
2023/07/18 07:11:58;;;;;;;3.90;2.90;;;;;;;21.17;64.91;100482.86;131269;1247;106670;-73
2023/07/18 07:15:04;;;;;;;5.30;2.70;;;;;;;20.92;64.94;100481.84;131263;1248;107563;-73
2023/07/18 07:18:09;;;;;;;4.70;3.00;;;;;;;20.90;65.69;100486.34;131238;1263;107440;-73
2023/07/18 07:21:14;;;;;;;3.60;2.60;;;;;;;21.11;66.10;100492.46;131258;1253;108321;-74
2023/07/18 07:24:20;;;;;;;3.50;2.70;;;;;;;21.30;63.26;100499.80;131180;1252;107471;-74
2023/07/18 07:27:26;;;;;;;3.70;2.50;;;;;;;21.14;62.69;100500.63;131287;1248;107345;-75
2023/07/18 07:30:31;;;;;;;3.60;2.70;;;;;;;21.19;63.49;100497.42;131224;1253;107454;-74
2023/07/18 07:33:37;;;;;;;4.60;3.20;;;;;;;21.45;63.71;100489.44;131317;1253;107457;-74
2023/07/18 07:36:42;;;;;;;3.00;2.60;;;;;;;21.50;61.86;100490.33;131295;1253;107580;-74
2023/07/18 07:39:48;;;;;;;4.80;3.00;;;;;;;21.33;62.93;100497.88;131270;1253;106068;-74
2023/07/18 07:42:53;;;;;;;4.50;2.40;;;;;;;21.36;63.11;100494.79;131379;1253;107854;-75
2023/07/18 07:45:59;;;;;;;3.20;1.90;;;;;;;21.51;61.09;100491.66;131157;1253;107448;-74
2023/07/18 07:49:05;;;;;;;3.00;1.90;;;;;;;21.59;57.81;100505.52;131311;1247;107751;-73
2023/07/18 07:52:11;;;;;;;5.40;1.80;;;;;;;21.43;54.56;100513.30;131286;1253;107381;-73
2023/07/18 07:55:18;;;;;;;2.50;1.90;;;;;;;21.24;54.27;100516.32;131213;1252;107454;-73
2023/07/18 07:58:23;;;;;;;2.70;2.00;;;;;;;21.21;57.11;100512.73;131419;1253;107557;-74
2023/07/18 08:01:29;;;;;;;2.90;2.00;;;;;;;21.46;56.80;100509.90;131364;1253;107428;-76
2023/07/18 08:04:36;;;;;;;2.90;1.40;;;;;;;21.43;53.44;100514.67;131233;1253;107010;-73
2023/07/18 08:07:42;;;;;;;2.80;1.20;;;;;;;21.37;53.66;100513.98;131288;1247;105834;-73
2023/07/18 08:10:48;;;;;;;1.50;1.20;;;;;;;21.46;52.82;100519.34;131225;1254;107104;-74
2023/07/18 08:13:54;;;;;;;2.00;1.40;;;;;;;21.58;54.60;100515.52;131285;1252;107412;-73
2023/07/18 08:16:59;;;;;;;1.50;1.10;;;;;;;21.76;54.38;100513.91;131265;1253;106566;-74
2023/07/18 08:20:08;;;;;;;2.20;1.30;;;;;;;21.73;51.27;100512.39;131242;1253;107344;-73
2023/07/18 08:23:14;;;;;;;1.90;1.30;;;;;;;21.71;51.51;100517.27;131307;1247;107508;-73
2023/07/18 08:26:20;;;;;;;4.60;1.00;;;;;;;21.78;50.18;100525.07;131239;1247;107214;-74
2023/07/18 08:29:28;;;;;;;2.70;0.90;;;;;;;21.80;51.13;100514.30;131194;1252;107598;-76
2023/07/18 08:32:33;;;;;;;2.00;0.90;;;;;;;21.91;48.47;100523.04;131336;1253;107470;-74
2023/07/18 08:35:40;;;;;;;2.10;1.20;;;;;;;21.65;46.29;100519.73;131262;1247;106857;-74
2023/07/18 08:38:49;;;;;;;2.20;1.40;;;;;;;21.47;49.50;100516.36;131300;1252;107558;-73
2023/07/18 08:41:58;;;;;;;2.60;1.10;;;;;;;21.69;50.55;100515.78;131271;1248;107367;-73
2023/07/18 08:45:07;;;;;;;2.00;1.20;;;;;;;21.70;48.96;100507.52;131241;1252;107459;-74
2023/07/18 08:48:13;;;;;;;2.60;1.40;;;;;;;21.57;49.06;100510.02;131236;1251;109243;-72
2023/07/18 08:51:20;;;;;;;1.70;1.20;;;;;;;21.49;50.01;100504.42;131316;1248;107893;-73
2023/07/18 08:54:25;;;;;;;5.10;1.70;;;;;;;21.49;49.08;100509.09;131222;1250;107405;-73
2023/07/18 08:57:31;;;;;;;2.10;1.20;;;;;;;21.47;49.52;100499.97;131289;1252;107482;-74
2023/07/18 09:00:36;;;;;;;3.50;1.20;;;;;;;21.62;49.53;100501.82;131272;1248;107588;-73
2023/07/18 09:03:42;;;;;;;3.10;1.20;;;;;;;21.76;48.19;100511.91;131330;1253;107444;-74
2023/07/18 09:06:56;;;;;;;1.00;0.90;;;;;;;21.78;47.07;100517.32;131333;1247;107244;-73
2023/07/18 09:10:03;;;;;;;2.90;1.00;;;;;;;21.64;45.85;100516.65;131319;1253;107499;-73
2023/07/18 09:13:09;;;;;;;2.40;1.10;;;;;;;21.61;46.44;100517.46;131337;1253;107526;-73
2023/07/18 09:16:17;;;;;;;2.80;1.10;;;;;;;21.57;45.73;100517.28;131266;1247;108626;-73
2023/07/18 09:19:35;;;;;;;2.30;1.30;;;;;;;21.53;46.32;100511.65;131306;1247;107456;-74
2023/07/18 09:22:44;;;;;;;3.40;0.90;;;;;;;21.60;46.77;100511.36;131295;1253;107188;-73
2023/07/18 09:25:49;;;;;;;2.60;1.30;;;;;;;21.73;48.03;100500.61;131349;1247;107198;-73
2023/07/18 09:28:55;;;;;;;2.50;1.40;;;;;;;22.02;48.39;100502.27;131343;1254;107507;-74
2023/07/18 09:32:01;;;;;;;2.50;1.10;;;;;;;22.21;46.55;100499.66;131247;1253;107461;-73
2023/07/18 09:35:11;;;;;;;1.70;0.90;;;;;;;22.15;45.24;100501.85;131315;1253;108543;-73
2023/07/18 09:38:17;;;;;;;1.90;1.20;;;;;;;22.15;46.22;100487.67;131320;1253;107520;-74
2023/07/18 09:41:23;;;;;;;2.20;1.00;;;;;;;22.28;45.89;100485.73;131345;1253;106485;-74
2023/07/18 09:44:29;;;;;;;1.40;1.00;;;;;;;22.50;47.11;100482.36;131226;1248;107379;-74
2023/07/18 09:47:36;;;;;;;1.50;1.00;;;;;;;22.65;44.09;100488.73;131301;1253;107259;-73
2023/07/18 09:50:44;;;;;;;2.20;0.90;;;;;;;22.59;43.49;100480.42;131384;1248;107595;-73
2023/07/18 09:53:52;;;;;;;3.10;1.10;;;;;;;22.49;44.07;100481.48;131276;1247;107037;-73
2023/07/18 09:56:59;;;;;;;2.20;0.80;;;;;;;22.60;44.17;100477.64;131275;1253;107171;-74
2023/07/18 10:00:10;;;;;;;2.00;1.10;;;;;;;22.52;42.82;100480.47;131236;1253;107430;-73
2023/07/18 10:03:17;;;;;;;1.90;1.20;;;;;;;22.39;43.48;100477.34;131309;1253;107410;-73
2023/07/18 10:06:24;;;;;;;1.80;1.10;;;;;;;22.39;43.58;100476.52;131290;1253;107269;-73
2023/07/18 10:09:31;;;;;;;1.60;1.20;;;;;;;22.38;43.03;100476.05;131265;1253;107494;-73
2023/07/18 10:12:39;;;;;;;2.00;1.10;;;;;;;22.51;44.19;100480.21;131328;1248;107232;-73
2023/07/18 10:16:15;;;;;;;3.00;0.90;;;;;;;22.58;42.62;100477.67;131333;1252;107347;-73
2023/07/18 10:19:23;;;;;;;2.20;1.00;;;;;;;22.60;42.82;100471.32;131440;1247;107589;-74
2023/07/18 10:22:30;;;;;;;2.10;1.00;;;;;;;22.73;43.52;100466.15;131243;1251;107684;-73
2023/07/18 10:25:38;;;;;;;1.60;1.00;;;;;;;22.88;43.49;100465.17;131270;1253;107506;-74
2023/07/18 10:28:48;;;;;;;3.30;1.10;;;;;;;23.04;42.46;100464.40;131250;1247;107608;-74
2023/07/18 10:31:54;;;;;;;2.70;1.10;;;;;;;22.96;40.81;100460.92;131303;1253;107611;-73
2023/07/18 10:35:01;;;;;;;3.00;0.90;;;;;;;22.85;41.75;100452.45;131242;1253;108144;-73
2023/07/18 10:38:07;;;;;;;1.20;0.90;;;;;;;22.88;42.42;100446.13;131283;1247;107203;-74
2023/07/18 10:41:12;;;;;;;1.50;0.90;;;;;;;23.01;42.12;100440.64;131245;1253;108657;-74
2023/07/18 10:44:18;;;;;;;2.60;1.20;;;;;;;23.00;40.99;100443.63;131315;1248;106687;-73
2023/07/18 10:47:23;;;;;;;2.20;1.10;;;;;;;22.83;41.82;100436.83;131296;1252;107537;-73
2023/07/18 10:50:29;;;;;;;1.60;1.10;;;;;;;22.73;41.95;100430.41;131283;1253;108515;-73
2023/07/18 10:53:36;;;;;;;3.50;1.00;;;;;;;22.81;41.36;100428.89;131328;1262;107962;-74
2023/07/18 10:56:41;;;;;;;1.80;1.00;;;;;;;22.95;42.12;100433.30;131305;1248;107129;-74
2023/07/18 10:59:47;;;;;;;1.40;0.90;;;;;;;23.10;42.63;100434.45;131291;1253;107677;-73
2023/07/18 11:02:52;;;;;;;1.70;1.10;;;;;;;23.25;42.90;100428.46;131228;1253;107538;-74
2023/07/18 11:05:58;;;;;;;1.70;1.00;;;;;;;23.32;41.94;100425.42;131237;1247;107371;-73
2023/07/18 11:09:11;;;;;;;1.20;0.90;;;;;;;23.33;42.85;100418.38;131204;1253;107451;-73
2023/07/18 11:12:20;;;;;;;1.90;0.90;;;;;;;23.34;42.84;100413.29;131277;1253;107367;-74
2023/07/18 11:15:26;;;;;;;3.20;1.00;;;;;;;23.34;41.72;100420.63;131247;1253;107543;-75
2023/07/18 11:18:35;;;;;;;2.70;1.10;;;;;;;23.23;40.38;100424.63;131273;1248;107184;-74
2023/07/18 11:21:41;;;;;;;2.50;1.20;;;;;;;23.12;40.32;100429.23;131334;1253;107357;-74
2023/07/18 11:24:47;;;;;;;2.00;1.00;;;;;;;23.07;41.06;100418.46;131255;1251;106663;-73
2023/07/18 11:27:52;;;;;;;2.00;1.00;;;;;;;23.22;41.86;100421.05;131267;1253;107556;-73
2023/07/18 11:30:58;;;;;;;1.60;1.00;;;;;;;23.31;41.14;100418.45;131363;1247;107349;-73
2023/07/18 11:34:05;;;;;;;2.20;1.00;;;;;;;23.37;41.52;100410.73;131248;1252;107539;-74
2023/07/18 11:37:10;;;;;;;2.80;0.90;;;;;;;23.45;41.62;100404.02;131243;1252;107439;-74
2023/07/18 11:40:23;;;;;;;2.80;1.30;;;;;;;23.55;40.78;100411.61;131278;1253;107361;-74
2023/07/18 11:43:31;;;;;;;1.40;0.80;;;;;;;23.64;40.63;100411.29;131256;1247;107518;-74
2023/07/18 11:46:40;;;;;;;3.30;0.90;;;;;;;23.69;40.06;100416.86;131316;1253;107483;-74
2023/07/18 11:49:46;;;;;;;4.10;1.10;;;;;;;23.59;39.11;100412.33;131303;1253;107545;-73
2023/07/18 11:52:52;;;;;;;1.50;0.80;;;;;;;23.50;40.19;100409.92;131254;1254;107537;-74
2023/07/18 11:55:58;;;;;;;2.90;1.10;;;;;;;23.53;39.26;100411.05;131274;1254;107481;-74
2023/07/18 11:59:04;;;;;;;3.10;1.10;;;;;;;23.54;39.21;100405.71;131277;1253;107589;-74
2023/07/18 12:02:10;;;;;;;1.80;0.90;;;;;;;23.46;39.38;100406.39;131245;1253;107553;-73
2023/07/18 12:05:16;;;;;;;1.90;1.20;;;;;;;23.49;39.53;100399.30;131246;1253;107464;-74
2023/07/18 12:08:21;;;;;;;1.80;1.00;;;;;;;23.54;38.63;100396.12;131219;1263;107456;-73
2023/07/18 12:11:27;;;;;;;1.70;0.90;;;;;;;23.60;38.98;100398.88;131227;1251;105995;-74
2023/07/18 12:14:33;;;;;;;1.20;0.90;;;;;;;23.59;38.72;100382.84;131291;1252;107606;-74
2023/07/18 12:17:40;;;;;;;1.40;0.80;;;;;;;23.58;38.97;100380.09;131288;1248;108142;-73
2023/07/18 12:20:46;;;;;;;1.70;0.80;;;;;;;23.71;39.65;100377.68;131291;1251;107650;-74
2023/07/18 12:23:51;;;;;;;1.60;0.80;;;;;;;23.82;39.45;100381.41;131315;1252;107552;-73
2023/07/18 12:26:57;;;;;;;3.60;1.00;;;;;;;23.91;38.23;100379.10;131282;1253;106035;-73
2023/07/18 12:30:04;;;;;;;1.60;0.80;;;;;;;23.86;37.63;100379.54;131247;1254;105827;-73
2023/07/18 12:33:09;;;;;;;1.30;0.80;;;;;;;23.87;38.98;100367.62;131258;1254;106663;-74
2023/07/18 12:36:15;;;;;;;1.50;1.00;;;;;;;23.98;38.55;100365.02;131193;1253;107478;-74
2023/07/18 12:39:20;;;;;;;1.90;0.90;;;;;;;24.02;38.60;100357.97;131263;1253;107450;-74
2023/07/18 12:42:26;;;;;;;2.90;0.90;;;;;;;23.91;37.56;100361.16;131152;1252;107336;-75
2023/07/18 12:45:33;;;;;;;2.00;0.80;;;;;;;23.84;38.77;100355.17;131252;1252;107603;-73
2023/07/18 12:48:38;;;;;;;2.20;0.90;;;;;;;23.96;38.28;100352.86;131332;1254;107413;-73
2023/07/18 12:51:44;;;;;;;2.10;1.00;;;;;;;23.98;38.30;100353.80;131354;1247;107504;-74
2023/07/18 12:54:49;;;;;;;2.00;1.20;;;;;;;24.05;37.51;100352.79;131309;1253;107504;-73
2023/07/18 12:57:55;;;;;;;2.30;1.10;;;;;;;23.97;37.07;100336.70;131286;1253;107365;-73
2023/07/18 13:01:01;;;;;;;2.50;0.90;;;;;;;23.95;37.01;100337.27;131226;1251;107627;-75
2023/07/18 13:04:06;;;;;;;1.40;0.90;;;;;;;23.92;36.03;100334.09;131288;1253;107504;-73
2023/07/18 13:07:12;;;;;;;1.00;0.80;;;;;;;23.92;36.11;100341.23;131360;1252;107300;-73
2023/07/18 13:10:18;;;;;;;1.40;0.70;;;;;;;23.94;36.88;100333.31;131217;1253;107488;-74
2023/07/18 13:13:23;;;;;;;1.30;0.70;;;;;;;24.03;36.66;100336.56;131173;1253;107485;-73
2023/07/18 13:16:29;;;;;;;2.10;0.90;;;;;;;24.11;37.29;100329.41;131240;1252;107530;-74
2023/07/18 13:19:34;;;;;;;0.90;0.80;;;;;;;24.15;36.98;100331.47;131263;1253;107475;-73
2023/07/18 13:22:40;;;;;;;2.40;0.80;;;;;;;24.20;37.26;100328.73;131206;1253;105811;-73
2023/07/18 13:25:45;;;;;;;2.80;1.00;;;;;;;24.15;37.16;100324.33;131253;1253;107473;-73
2023/07/18 13:28:51;;;;;;;2.80;0.80;;;;;;;24.10;36.79;100318.02;131227;1253;105658;-73
2023/07/18 13:31:56;;;;;;;1.50;0.80;;;;;;;24.13;37.47;100318.17;131276;1252;107479;-73
2023/07/18 13:35:02;;;;;;;2.10;1.20;;;;;;;24.26;38.05;100314.61;131326;1253;107479;-73
2023/07/18 13:38:09;;;;;;;1.20;0.60;;;;;;;24.39;37.29;100314.86;131179;1253;107488;-76
2023/07/18 13:41:14;;;;;;;1.20;0.70;;;;;;;24.39;36.26;100314.65;131233;1248;107513;-73
2023/07/18 13:44:20;;;;;;;1.50;0.90;;;;;;;24.39;36.41;100317.11;131258;1252;107522;-73
2023/07/18 13:47:25;;;;;;;1.30;0.80;;;;;;;24.26;35.73;100312.64;131352;1247;107440;-72
2023/07/18 13:50:31;;;;;;;1.60;0.80;;;;;;;24.08;36.36;100308.80;131343;1252;107520;-72
2023/07/18 13:53:37;;;;;;;1.40;0.80;;;;;;;24.15;36.64;100301.86;131322;1253;107440;-71
2023/07/18 13:56:43;;;;;;;0.90;0.70;;;;;;;24.32;37.02;100297.93;131250;1253;107002;-71
2023/07/18 13:59:49;;;;;;;2.20;0.90;;;;;;;24.46;36.30;100291.75;131338;1253;107516;-72
2023/07/18 14:02:54;;;;;;;1.10;0.90;;;;;;;24.56;36.55;100284.13;131282;1248;107239;-72
2023/07/18 14:06:00;;;;;;;2.30;0.80;;;;;;;24.58;35.73;100282.48;131240;1247;107419;-72